Time;durP1;ratioP1;P1;durP2;ratioP2;P2;SDS_P1;SDS_P2;PMS_P1;PMS_P2;Temp;Humidity;BMP_temperature;BMP_pressure;BME280_temperature;BME280_humidity;BME280_pressure;Samples;Min_cycle;Max_cycle;Signal;HPM_P1;HPM_P2
2021/03/03 00:01:30;;;;;;;34.33;22.67;;;6.80;72.70;;;;;;5091891;28;20233;-60
2021/03/03 00:03:57;;;;;;;32.33;21.83;;;6.70;72.80;;;;;;5096889;28;20212;-60
2021/03/03 00:06:24;;;;;;;36.13;22.67;;;6.70;72.90;;;;;;5102583;28;20222;-60
2021/03/03 00:08:51;;;;;;;38.87;23.00;;;6.70;73.00;;;;;;5101618;28;20239;-60
2021/03/03 00:11:17;;;;;;;32.30;22.07;;;6.70;72.80;;;;;;5094041;28;20239;-61
2021/03/03 00:13:44;;;;;;;35.77;21.37;;;6.60;72.70;;;;;;5100548;28;20545;-61
2021/03/03 00:16:10;;;;;;;31.67;20.87;;;6.60;72.80;;;;;;5091974;28;20220;-60
2021/03/03 00:18:37;;;;;;;38.20;22.93;;;6.50;72.80;;;;;;5099135;28;20212;-60
2021/03/03 00:21:04;;;;;;;38.07;23.00;;;6.40;72.90;;;;;;5102793;28;20215;-61
2021/03/03 00:23:30;;;;;;;35.83;22.83;;;6.40;73.80;;;;;;5095180;28;20220;-60
2021/03/03 00:25:57;;;;;;;36.97;22.77;;;6.30;73.20;;;;;;5093171;28;20213;-61
2021/03/03 00:28:23;;;;;;;35.80;22.57;;;6.30;73.40;;;;;;5100918;28;20205;-60
2021/03/03 00:30:50;;;;;;;33.47;22.83;;;6.20;73.50;;;;;;5094599;28;20552;-60
2021/03/03 00:33:16;;;;;;;39.30;22.23;;;6.10;73.60;;;;;;5091684;28;20207;-60
2021/03/03 00:35:43;;;;;;;36.87;23.27;;;6.10;73.70;;;;;;5090378;28;20684;-60
2021/03/03 00:38:09;;;;;;;35.03;23.03;;;6.00;73.80;;;;;;5100133;28;20209;-61
2021/03/03 00:40:36;;;;;;;31.83;20.43;;;6.00;74.00;;;;;;5094710;28;20209;-60
2021/03/03 00:43:03;;;;;;;34.07;22.43;;;6.00;74.10;;;;;;5102732;28;20219;-60
2021/03/03 00:45:30;;;;;;;34.57;21.37;;;5.90;74.10;;;;;;5092639;28;20213;-60
2021/03/03 00:47:57;;;;;;;32.43;22.00;;;5.90;74.20;;;;;;5098700;28;20224;-60
2021/03/03 00:50:24;;;;;;;35.90;22.67;;;5.90;74.10;;;;;;5100336;28;20240;-60
2021/03/03 00:52:50;;;;;;;37.87;22.50;;;5.90;74.10;;;;;;5108069;28;20204;-60
2021/03/03 00:55:17;;;;;;;37.30;22.93;;;5.80;74.20;;;;;;5103929;28;20215;-60
2021/03/03 00:57:44;;;;;;;36.83;24.73;;;5.80;74.30;;;;;;5095247;28;20555;-60
2021/03/03 01:00:19;;;;;;;37.97;21.30;;;5.70;75.10;;;;;;5100820;28;20209;-60
2021/03/03 01:02:46;;;;;;;35.83;21.57;;;5.70;74.50;;;;;;5095949;28;20223;-61
2021/03/03 01:05:13;;;;;;;33.50;22.30;;;5.60;74.50;;;;;;5099063;28;20208;-60
2021/03/03 01:07:40;;;;;;;33.50;22.00;;;5.50;74.70;;;;;;5102653;28;20560;-60
2021/03/03 01:10:07;;;;;;;39.50;23.33;;;5.50;74.90;;;;;;5096913;28;20255;-60
2021/03/03 01:12:34;;;;;;;37.30;22.57;;;5.40;75.10;;;;;;5101248;28;20205;-60
2021/03/03 01:15:00;;;;;;;43.23;23.03;;;5.40;75.30;;;;;;5102462;28;20198;-60
2021/03/03 01:17:27;;;;;;;36.20;22.23;;;5.40;75.40;;;;;;5095310;28;20228;-61
2021/03/03 01:19:54;;;;;;;34.33;21.30;;;5.40;75.40;;;;;;5101303;28;20208;-60
2021/03/03 01:22:20;;;;;;;44.23;22.77;;;5.30;75.40;;;;;;5097953;28;20626;-60
2021/03/03 01:24:47;;;;;;;38.30;21.40;;;5.30;75.50;;;;;;5098198;28;20203;-60
2021/03/03 01:27:14;;;;;;;32.93;20.80;;;5.30;75.60;;;;;;5108555;28;20208;-60
2021/03/03 01:29:40;;;;;;;31.63;19.93;;;5.30;75.60;;;;;;5106351;28;20197;-60
2021/03/03 01:32:07;;;;;;;29.63;19.90;;;5.30;75.70;;;;;;5099166;28;20647;-61
2021/03/03 01:34:34;;;;;;;31.53;20.60;;;5.30;75.90;;;;;;5103517;28;20630;-60
2021/03/03 01:37:00;;;;;;;29.67;19.87;;;5.30;75.70;;;;;;5098924;28;20209;-60
2021/03/03 01:39:27;;;;;;;30.93;20.13;;;5.30;75.60;;;;;;5099242;27;20205;-60
2021/03/03 01:41:53;;;;;;;31.77;20.87;;;5.20;75.60;;;;;;5096575;28;20213;-60
2021/03/03 01:44:20;;;;;;;35.67;20.30;;;5.20;75.80;;;;;;5105387;28;20661;-60
2021/03/03 01:46:47;;;;;;;30.97;20.03;;;5.20;76.10;;;;;;5097749;28;20215;-60
2021/03/03 01:49:14;;;;;;;35.47;21.60;;;5.20;76.20;;;;;;5108108;28;20654;-60
2021/03/03 01:51:41;;;;;;;35.57;22.03;;;5.30;76.30;;;;;;5111559;28;20604;-60
2021/03/03 01:54:08;;;;;;;31.83;19.93;;;5.30;76.20;;;;;;5105317;28;20197;-61
2021/03/03 01:56:35;;;;;;;35.43;21.63;;;5.30;76.20;;;;;;5104758;28;20201;-60
2021/03/03 01:59:01;;;;;;;35.60;22.93;;;5.30;76.10;;;;;;5095661;28;20237;-60
2021/03/03 02:01:28;;;;;;;26.73;19.40;;;5.20;76.00;;;;;;5103400;28;20300;-60
2021/03/03 02:03:55;;;;;;;29.20;19.93;;;5.20;76.10;;;;;;5101941;28;20228;-60
2021/03/03 02:06:28;;;;;;;33.77;21.90;;;5.20;76.20;;;;;;5100399;28;20219;-60
2021/03/03 02:09:09;;;;;;;28.53;19.20;;;5.20;76.40;;;;;;5094657;28;20213;-60
2021/03/03 02:11:52;;;;;;;34.47;21.83;;;5.10;76.40;;;;;;5094054;28;20315;-61
2021/03/03 02:14:25;;;;;;;29.87;20.17;;;5.10;76.50;;;;;;5101696;28;20196;-60
2021/03/03 02:16:54;;;;;;;36.67;20.83;;;5.20;76.50;;;;;;5097408;28;20592;-61
2021/03/03 02:19:36;;;;;;;34.23;21.40;;;5.10;76.50;;;;;;5104044;28;20213;-60
2021/03/03 02:22:12;;;;;;;33.27;22.00;;;5.20;76.80;;;;;;5107441;28;20209;-60
2021/03/03 02:24:46;;;;;;;35.20;21.00;;;5.10;76.80;;;;;;5103852;28;20208;-60
2021/03/03 02:27:13;;;;;;;36.33;21.67;;;5.10;76.90;;;;;;5099344;28;20291;-60
2021/03/03 02:29:41;;;;;;;32.73;21.47;;;5.10;77.00;;;;;;5099550;28;20213;-60
2021/03/03 02:32:08;;;;;;;37.37;23.43;;;5.10;77.00;;;;;;5098005;28;20615;-60
2021/03/03 02:34:38;;;;;;;33.07;21.63;;;5.10;77.10;;;;;;5097805;28;20201;-60
2021/03/03 02:37:04;;;;;;;33.70;20.97;;;5.10;77.20;;;;;;5102971;28;20662;-60
2021/03/03 02:39:31;;;;;;;34.70;23.10;;;5.10;77.20;;;;;;5093716;28;20679;-60
2021/03/03 02:41:58;;;;;;;37.10;21.87;;;5.00;77.20;;;;;;5097725;28;20224;-60
2021/03/03 02:44:26;;;;;;;40.73;22.80;;;5.00;77.30;;;;;;5098699;28;20209;-60
2021/03/03 02:46:53;;;;;;;30.30;20.87;;;5.00;77.50;;;;;;5094988;28;20797;-60
2021/03/03 02:49:22;;;;;;;37.50;23.20;;;5.00;77.50;;;;;;5097106;28;20219;-60
2021/03/03 02:51:49;;;;;;;37.87;23.53;;;5.00;77.60;;;;;;5094556;28;20323;-60
2021/03/03 02:54:16;;;;;;;36.80;24.13;;;5.00;77.80;;;;;;5098602;28;20537;-60
2021/03/03 02:56:44;;;;;;;38.17;23.57;;;5.00;78.00;;;;;;5103244;28;20209;-60
2021/03/03 02:59:21;;;;;;;41.57;24.20;;;5.00;78.00;;;;;;5099958;28;20236;-60
2021/03/03 03:02:00;;;;;;;35.83;23.63;;;5.00;78.00;;;;;;5105376;28;20239;-60
2021/03/03 03:04:31;;;;;;;38.63;24.90;;;5.00;78.00;;;;;;5096951;28;20209;-60
2021/03/03 03:07:05;;;;;;;34.27;21.80;;;5.00;78.20;;;;;;5091746;28;20196;-60
2021/03/03 03:09:34;;;;;;;43.53;24.80;;;5.00;78.10;;;;;;5092724;28;20545;-60
2021/03/03 03:12:02;;;;;;;38.70;22.60;;;5.00;77.90;;;;;;5095361;28;20269;-60
2021/03/03 03:14:29;;;;;;;36.50;21.97;;;4.90;78.10;;;;;;5104881;28;20261;-60
2021/03/03 03:16:57;;;;;;;35.50;22.47;;;4.90;78.10;;;;;;5095227;28;20245;-61
2021/03/03 03:19:28;;;;;;;34.83;22.20;;;4.80;78.10;;;;;;5097565;28;20634;-60
2021/03/03 03:21:57;;;;;;;37.03;22.97;;;4.70;78.30;;;;;;5098559;28;20239;-60
2021/03/03 03:24:24;;;;;;;38.50;25.60;;;4.70;78.40;;;;;;5095930;28;20220;-60
2021/03/03 03:26:52;;;;;;;39.23;23.53;;;4.70;78.60;;;;;;5095161;28;20225;-61
2021/03/03 03:29:19;;;;;;;39.50;23.63;;;4.70;78.70;;;;;;5101853;28;20618;-61
2021/03/03 03:31:47;;;;;;;42.77;24.50;;;4.60;78.70;;;;;;5094758;28;20221;-60
2021/03/03 03:34:15;;;;;;;35.70;24.63;;;4.60;78.80;;;;;;5092707;28;20205;-60
2021/03/03 03:36:42;;;;;;;39.13;24.70;;;4.60;79.00;;;;;;5094205;28;20220;-61
2021/03/03 03:39:11;;;;;;;41.00;25.03;;;4.60;79.20;;;;;;5091952;28;20236;-60
2021/03/03 03:41:39;;;;;;;43.17;25.37;;;4.60;79.30;;;;;;5092202;28;20205;-60
2021/03/03 03:44:08;;;;;;;41.83;24.50;;;4.60;79.30;;;;;;5100362;28;20217;-60
2021/03/03 03:46:37;;;;;;;39.73;25.07;;;4.60;79.30;;;;;;5097481;28;20225;-60
2021/03/03 03:49:04;;;;;;;33.80;23.47;;;4.70;79.30;;;;;;5093161;28;20262;-60
2021/03/03 03:51:31;;;;;;;37.27;23.57;;;4.70;79.30;;;;;;5092090;28;20290;-60
2021/03/03 03:53:59;;;;;;;34.23;22.20;;;4.60;79.20;;;;;;5101574;28;20631;-60
2021/03/03 03:56:25;;;;;;;41.70;26.20;;;4.60;79.20;;;;;;5095178;28;20213;-60
2021/03/03 03:58:52;;;;;;;34.73;23.70;;;4.60;79.30;;;;;;5094649;28;20232;-60
2021/03/03 04:01:19;;;;;;;37.77;23.80;;;4.60;80.00;;;;;;5100068;28;20239;-61
2021/03/03 04:03:46;;;;;;;39.20;24.17;;;4.60;79.50;;;;;;5101397;28;20215;-61
2021/03/03 04:06:12;;;;;;;41.07;22.93;;;4.60;79.50;;;;;;5092365;28;20205;-60
2021/03/03 04:08:39;;;;;;;41.53;24.30;;;4.50;79.40;;;;;;5096396;28;20295;-61
2021/03/03 04:11:05;;;;;;;42.00;26.50;;;4.60;79.50;;;;;;5100775;28;20228;-61
2021/03/03 04:13:32;;;;;;;39.30;23.13;;;4.60;79.50;;;;;;5095513;28;20649;-61
2021/03/03 04:15:58;;;;;;;38.27;22.87;;;4.50;79.50;;;;;;5103902;28;20200;-60
2021/03/03 04:18:25;;;;;;;35.20;22.57;;;4.50;79.50;;;;;;5091657;28;20213;-61
2021/03/03 04:20:52;;;;;;;34.33;23.37;;;4.50;79.50;;;;;;5101782;28;20646;-60
2021/03/03 04:23:19;;;;;;;38.60;23.70;;;4.50;79.30;;;;;;5103110;28;20204;-60
2021/03/03 04:25:45;;;;;;;35.97;22.80;;;4.40;79.00;;;;;;5099110;28;20212;-60
2021/03/03 04:28:12;;;;;;;43.27;23.13;;;4.30;79.10;;;;;;5100295;28;20201;-60
2021/03/03 04:30:39;;;;;;;35.00;22.23;;;4.20;79.10;;;;;;5098403;28;20229;-60
2021/03/03 04:33:08;;;;;;;39.63;22.53;;;4.20;79.30;;;;;;5101360;28;20546;-61
2021/03/03 04:35:36;;;;;;;35.57;22.50;;;4.10;79.30;;;;;;5103959;28;20200;-60
2021/03/03 04:38:03;;;;;;;31.37;21.27;;;4.10;80.10;;;;;;5096788;28;20205;-60
2021/03/03 04:40:29;;;;;;;39.40;22.03;;;4.00;79.50;;;;;;5095833;28;20619;-60
2021/03/03 04:42:56;;;;;;;31.03;19.77;;;4.00;79.70;;;;;;5100611;28;20641;-60
2021/03/03 04:45:23;;;;;;;34.30;20.13;;;4.00;79.70;;;;;;5096995;28;20248;-61
2021/03/03 04:47:53;;;;;;;36.63;19.63;;;4.00;79.70;;;;;;5100343;28;20876;-62
2021/03/03 04:50:21;;;;;;;31.23;19.57;;;4.00;79.70;;;;;;5099375;28;20237;-60
2021/03/03 04:52:47;;;;;;;27.60;18.07;;;4.00;79.70;;;;;;5095816;28;20216;-61
2021/03/03 04:55:14;;;;;;;33.23;19.00;;;4.00;79.70;;;;;;5094481;28;20257;-61
2021/03/03 04:57:40;;;;;;;29.03;17.17;;;4.10;79.70;;;;;;5091575;28;20552;-61
2021/03/03 05:00:08;;;;;;;29.53;18.80;;;4.00;79.70;;;;;;5100870;28;20213;-62
2021/03/03 05:02:34;;;;;;;26.73;17.30;;;4.00;79.50;;;;;;5103251;28;20694;-61
2021/03/03 05:05:01;;;;;;;27.07;18.07;;;4.00;79.40;;;;;;5092003;28;20619;-61
2021/03/03 05:07:28;;;;;;;29.37;18.63;;;4.00;79.40;;;;;;5090995;28;20213;-61
2021/03/03 05:09:54;;;;;;;29.63;17.97;;;4.00;79.40;;;;;;5093827;28;20213;-61
2021/03/03 05:12:21;;;;;;;30.10;18.50;;;4.00;80.00;;;;;;5091147;28;20572;-61
2021/03/03 05:14:48;;;;;;;29.50;18.93;;;4.00;79.40;;;;;;5099550;28;20212;-60
2021/03/03 05:17:14;;;;;;;27.70;18.77;;;3.90;79.20;;;;;;5092169;28;20197;-61
2021/03/03 05:19:45;;;;;;;28.17;17.67;;;3.90;79.20;;;;;;5094915;28;20241;-61
2021/03/03 05:22:11;;;;;;;34.63;18.70;;;3.80;79.30;;;;;;5095859;28;20220;-60
2021/03/03 05:24:38;;;;;;;30.40;18.50;;;3.70;79.30;;;;;;5096845;28;20209;-61
2021/03/03 05:27:05;;;;;;;28.80;18.23;;;3.70;79.50;;;;;;5089783;28;20217;-61
2021/03/03 05:29:31;;;;;;;25.43;17.53;;;3.70;79.50;;;;;;5090342;28;20219;-61
2021/03/03 05:31:59;;;;;;;31.03;17.50;;;3.70;79.50;;;;;;5097951;28;20221;-61
2021/03/03 05:34:25;;;;;;;29.73;17.73;;;3.60;79.40;;;;;;5094648;28;20197;-61
2021/03/03 05:36:58;;;;;;;32.37;17.53;;;3.60;79.40;;;;;;5102153;28;20205;-60
2021/03/03 05:39:24;;;;;;;33.03;18.47;;;3.50;79.50;;;;;;5103588;28;20258;-61
2021/03/03 05:41:51;;;;;;;35.77;19.17;;;3.50;79.70;;;;;;5095838;28;20219;-61
2021/03/03 05:44:18;;;;;;;36.83;19.07;;;3.40;79.80;;;;;;5098092;28;20550;-61
2021/03/03 05:46:46;;;;;;;35.53;18.03;;;3.40;79.90;;;;;;5095873;28;20209;-61
2021/03/03 05:49:22;;;;;;;32.27;18.90;;;3.40;80.00;;;;;;5098440;28;20306;-60
2021/03/03 05:51:49;;;;;;;33.87;18.93;;;3.30;80.00;;;;;;5104538;28;20607;-60
2021/03/03 05:54:16;;;;;;;33.60;17.57;;;3.30;80.10;;;;;;5098171;28;20209;-61
2021/03/03 05:56:43;;;;;;;27.67;16.93;;;3.30;80.20;;;;;;5099563;28;20212;-61
2021/03/03 05:59:11;;;;;;;27.83;17.00;;;3.30;80.30;;;;;;5095338;28;20235;-61
2021/03/03 06:01:39;;;;;;;31.57;18.20;;;3.30;80.40;;;;;;5100553;28;20204;-61
2021/03/03 06:04:19;;;;;;;34.43;15.43;;;3.30;80.50;;;;;;5102093;28;20219;-62
2021/03/03 06:06:46;;;;;;;25.83;16.60;;;3.40;80.60;;;;;;5098702;28;20204;-61
2021/03/03 06:09:12;;;;;;;28.57;16.37;;;3.40;80.40;;;;;;5099309;28;20299;-61
2021/03/03 06:11:39;;;;;;;33.20;17.33;;;3.50;80.20;;;;;;5096042;28;20307;-61
2021/03/03 06:14:05;;;;;;;30.87;15.83;;;3.60;80.00;;;;;;5099017;28;20201;-61
2021/03/03 06:16:32;;;;;;;29.07;16.10;;;3.70;79.60;;;;;;5100870;28;20201;-61
2021/03/03 06:18:59;;;;;;;26.73;16.63;;;3.80;79.60;;;;;;5102217;28;20204;-61
2021/03/03 06:21:30;;;;;;;24.77;15.30;;;3.90;79.30;;;;;;5099292;28;20549;-61
2021/03/03 06:24:08;;;;;;;23.00;15.37;;;4.10;79.20;;;;;;5101982;28;20215;-61
2021/03/03 06:26:53;;;;;;;27.33;16.50;;;4.30;79.00;;;;;;5096384;28;20654;-61
2021/03/03 06:29:20;;;;;;;31.80;16.27;;;4.50;78.70;;;;;;5098402;28;20236;-61
2021/03/03 06:31:47;;;;;;;25.20;15.53;;;4.70;78.60;;;;;;5098608;28;20527;-61
2021/03/03 06:34:16;;;;;;;19.80;13.87;;;4.90;78.40;;;;;;5100668;28;20240;-61
2021/03/03 06:36:48;;;;;;;25.93;15.17;;;5.10;78.00;;;;;;5097184;28;20205;-61
2021/03/03 06:39:21;;;;;;;32.90;14.80;;;5.30;77.10;;;;;;5101875;28;20204;-62
2021/03/03 06:41:56;;;;;;;23.07;13.83;;;5.40;76.70;;;;;;5101417;28;20204;-61
2021/03/03 06:44:24;;;;;;;22.17;14.23;;;5.60;76.20;;;;;;5097300;28;20201;-61
2021/03/03 06:47:02;;;;;;;23.60;15.40;;;5.70;75.60;;;;;;5095684;28;20308;-61
2021/03/03 06:49:30;;;;;;;21.23;14.20;;;5.80;75.20;;;;;;5093934;28;20555;-61
2021/03/03 06:51:57;;;;;;;20.23;14.07;;;5.90;75.00;;;;;;5099140;28;20252;-61
2021/03/03 06:54:24;;;;;;;28.60;14.87;;;6.00;74.70;;;;;;5092161;28;20209;-61
2021/03/03 06:56:53;;;;;;;20.70;14.33;;;6.10;74.40;;;;;;5093697;28;20212;-61
2021/03/03 06:59:23;;;;;;;23.80;14.83;;;6.20;74.10;;;;;;5092794;28;20241;-61
2021/03/03 07:01:54;;;;;;;20.40;13.80;;;6.30;73.80;;;;;;5106080;28;20204;-62
2021/03/03 07:04:33;;;;;;;21.83;13.73;;;6.50;73.80;;;;;;5098367;28;20667;-61
2021/03/03 07:07:18;;;;;;;24.80;14.97;;;6.60;73.40;;;;;;5104318;28;20775;-61
2021/03/03 07:09:49;;;;;;;24.33;14.47;;;6.80;73.00;;;;;;5096323;28;20549;-61
2021/03/03 07:12:27;;;;;;;20.20;14.10;;;7.00;72.50;;;;;;5093438;28;20219;-61
2021/03/03 07:15:03;;;;;;;24.43;15.20;;;7.20;71.90;;;;;;5094000;28;20212;-61
2021/03/03 07:17:35;;;;;;;27.90;15.57;;;7.40;71.50;;;;;;5091598;28;20200;-61
2021/03/03 07:20:08;;;;;;;22.37;15.40;;;7.60;70.90;;;;;;5097483;28;20201;-61
2021/03/03 07:22:37;;;;;;;19.63;13.37;;;7.70;70.50;;;;;;5100123;28;20211;-61
2021/03/03 07:25:07;;;;;;;21.97;14.30;;;7.90;70.50;;;;;;5093554;28;20228;-61
2021/03/03 07:27:35;;;;;;;28.43;15.03;;;8.10;70.40;;;;;;5098085;28;20205;-61
2021/03/03 07:30:10;;;;;;;19.57;13.37;;;8.30;70.20;;;;;;5094437;28;20521;-61
2021/03/03 07:32:37;;;;;;;23.67;13.90;;;8.50;69.70;;;;;;5093115;28;20232;-62
2021/03/03 07:35:24;;;;;;;23.27;13.93;;;8.60;69.20;;;;;;5097614;28;20657;-61
2021/03/03 07:37:55;;;;;;;23.73;14.63;;;8.90;68.50;;;;;;5095773;28;20215;-62
2021/03/03 07:40:25;;;;;;;25.30;14.93;;;9.10;68.30;;;;;;5095213;28;20292;-61
2021/03/03 07:42:59;;;;;;;28.53;15.47;;;9.30;67.00;;;;;;5092554;28;20411;-61
2021/03/03 07:45:38;;;;;;;25.40;15.30;;;9.50;66.50;;;;;;5091544;28;20197;-62
2021/03/03 07:48:07;;;;;;;23.77;14.73;;;9.80;66.10;;;;;;5096515;28;20383;-62
2021/03/03 07:50:34;;;;;;;17.90;14.50;;;10.00;65.40;;;;;;5103182;28;20201;-61
2021/03/03 07:53:01;;;;;;;20.87;14.87;;;10.20;64.50;;;;;;5094523;28;20266;-61
2021/03/03 07:55:29;;;;;;;31.00;15.37;;;10.30;64.00;;;;;;5100753;28;20212;-62
2021/03/03 07:57:59;;;;;;;19.60;14.30;;;10.50;64.00;;;;;;5101643;28;20248;-62
2021/03/03 08:00:28;;;;;;;24.50;14.17;;;10.60;63.40;;;;;;5095360;28;20527;-59
2021/03/03 08:02:55;;;;;;;26.03;14.40;;;10.80;62.70;;;;;;5095692;28;20550;-61
2021/03/03 08:05:36;;;;;;;21.33;14.97;;;11.00;62.10;;;;;;5098806;28;20197;-61
2021/03/03 08:08:28;;;;;;;27.50;15.87;;;11.20;61.60;;;;;;5091438;28;20704;-62
2021/03/03 08:10:58;;;;;;;25.20;16.20;;;11.40;60.90;;;;;;5103649;28;20229;-59
2021/03/03 08:13:30;;;;;;;23.87;16.93;;;11.60;61.10;;;;;;5094986;28;20205;-60
2021/03/03 08:15:58;;;;;;;23.20;15.63;;;11.70;60.80;;;;;;5094889;28;20659;-61
2021/03/03 08:18:33;;;;;;;25.07;15.80;;;11.90;60.40;;;;;;5099168;28;20216;-59
2021/03/03 08:21:09;;;;;;;25.33;16.80;;;12.10;60.00;;;;;;5103364;28;20528;-60
2021/03/03 08:23:37;;;;;;;24.00;16.97;;;12.30;59.40;;;;;;5094401;28;20212;-60
2021/03/03 08:26:17;;;;;;;25.13;18.13;;;12.40;59.30;;;;;;5092560;28;20205;-60
2021/03/03 08:28:45;;;;;;;30.67;17.73;;;12.60;58.90;;;;;;5096721;28;20205;-62
2021/03/03 08:31:14;;;;;;;27.53;17.20;;;12.70;58.50;;;;;;5095013;28;20298;-61
2021/03/03 08:33:42;;;;;;;27.70;18.70;;;12.90;58.40;;;;;;5098546;28;20454;-62
2021/03/03 08:36:17;;;;;;;28.63;18.13;;;13.10;58.10;;;;;;5091014;28;20288;-60
2021/03/03 08:38:55;;;;;;;31.73;20.27;;;13.20;57.50;;;;;;5093778;28;20200;-61
2021/03/03 08:41:26;;;;;;;31.33;21.10;;;13.40;57.30;;;;;;5097767;28;20209;-61
2021/03/03 08:44:02;;;;;;;31.93;22.53;;;13.60;57.10;;;;;;5095570;28;20208;-61
2021/03/03 08:46:28;;;;;;;40.37;24.70;;;13.70;56.30;;;;;;5093762;28;20518;-64
2021/03/03 08:48:55;;;;;;;42.60;28.30;;;13.90;55.90;;;;;;5099476;28;20274;-62
2021/03/03 08:51:38;;;;;;;43.20;27.03;;;14.10;55.90;;;;;;5091133;28;20229;-62
2021/03/03 08:54:11;;;;;;;41.60;25.00;;;14.20;55.30;;;;;;5096636;28;20212;-59
2021/03/03 08:56:39;;;;;;;33.73;23.03;;;14.40;55.20;;;;;;5101649;28;20289;-61
2021/03/03 08:59:10;;;;;;;34.00;24.47;;;14.60;54.70;;;;;;5097226;28;20264;-61
2021/03/03 09:02:02;;;;;;;32.70;22.07;;;14.80;54.20;;;;;;5097724;28;20200;-62
2021/03/03 09:04:44;;;;;;;30.73;20.70;;;14.90;53.50;;;;;;5099589;28;20212;-63
2021/03/03 09:07:18;;;;;;;32.33;22.37;;;14.90;53.20;;;;;;5102837;28;20205;-60
2021/03/03 09:09:56;;;;;;;32.03;21.17;;;14.90;52.50;;;;;;5099488;28;20209;-62
2021/03/03 09:12:28;;;;;;;31.40;21.83;;;14.90;53.00;;;;;;5094701;28;20677;-61
2021/03/03 09:14:57;;;;;;;36.53;22.67;;;15.00;53.00;;;;;;5095977;28;20303;-60
2021/03/03 09:17:34;;;;;;;29.60;22.47;;;15.20;52.60;;;;;;5100586;28;20240;-61
2021/03/03 09:20:15;;;;;;;29.77;22.83;;;15.30;52.80;;;;;;5097776;28;20208;-61
2021/03/03 09:22:43;;;;;;;46.47;28.60;;;15.50;52.90;;;;;;5094707;28;20280;-62
2021/03/03 09:25:16;;;;;;;44.43;28.57;;;15.60;52.80;;;;;;5094705;28;20213;-60
2021/03/03 09:27:53;;;;;;;38.43;28.00;;;15.80;52.20;;;;;;5103645;28;20192;-61
2021/03/03 09:30:22;;;;;;;36.17;26.13;;;15.90;52.20;;;;;;5101725;28;20353;-61
2021/03/03 09:32:48;;;;;;;32.47;23.33;;;16.00;52.20;;;;;;5104009;28;20673;-62
2021/03/03 09:35:26;;;;;;;34.10;22.67;;;16.20;52.10;;;;;;5096573;28;20220;-62
2021/03/03 09:37:53;;;;;;;41.87;29.73;;;16.30;51.40;;;;;;5101168;28;20747;-62
2021/03/03 09:40:26;;;;;;;38.03;22.60;;;16.30;51.30;;;;;;5102949;28;20220;-62
2021/03/03 09:42:52;;;;;;;29.27;21.63;;;16.30;50.70;;;;;;5099485;28;20231;-61
2021/03/03 09:45:21;;;;;;;40.40;24.60;;;16.40;50.60;;;;;;5108038;28;20201;-62
2021/03/03 09:47:48;;;;;;;38.97;24.33;;;16.40;50.30;;;;;;5097202;28;20206;-62
2021/03/03 09:50:18;;;;;;;37.20;25.03;;;16.50;50.50;;;;;;5099222;28;20205;-61
2021/03/03 09:52:46;;;;;;;34.53;25.90;;;16.60;49.80;;;;;;5094687;28;20240;-59
2021/03/03 09:55:15;;;;;;;33.97;22.83;;;16.60;50.00;;;;;;5100741;28;20209;-61
2021/03/03 09:57:43;;;;;;;31.73;23.63;;;16.60;49.80;;;;;;5098684;28;20548;-61
2021/03/03 10:00:15;;;;;;;38.27;26.07;;;16.60;49.40;;;;;;5099435;28;20216;-61
2021/03/03 10:02:48;;;;;;;35.60;24.80;;;16.60;49.40;;;;;;5102230;28;20212;-60
2021/03/03 10:05:26;;;;;;;30.77;23.00;;;16.60;50.10;;;;;;5101139;28;20224;-61
2021/03/03 10:08:01;;;;;;;32.57;24.43;;;16.50;49.50;;;;;;5105708;28;20212;-59
2021/03/03 10:10:31;;;;;;;37.07;24.77;;;16.50;50.20;;;;;;5101067;28;20296;-61
2021/03/03 10:12:58;;;;;;;34.50;23.57;;;16.50;49.70;;;;;;5095226;28;20201;-61
2021/03/03 10:15:38;;;;;;;30.27;23.30;;;16.60;50.10;;;;;;5099735;28;20205;-62
2021/03/03 10:18:09;;;;;;;33.37;24.13;;;16.90;49.50;;;;;;5100542;28;20211;-62
2021/03/03 10:20:43;;;;;;;36.37;23.93;;;17.00;48.70;;;;;;5095144;28;20578;-62
2021/03/03 10:23:32;;;;;;;32.60;24.37;;;17.20;48.40;;;;;;5096943;28;20258;-62
2021/03/03 10:26:05;;;;;;;34.33;24.10;;;17.20;49.00;;;;;;5098665;28;20209;-62
2021/03/03 10:28:32;;;;;;;37.70;24.50;;;17.30;48.20;;;;;;5098642;28;20274;-60
2021/03/03 10:31:02;;;;;;;34.70;25.10;;;17.40;47.70;;;;;;5100060;28;20320;-62
2021/03/03 10:33:31;;;;;;;37.40;25.23;;;17.50;48.50;;;;;;5101402;28;20485;-61
2021/03/03 10:36:00;;;;;;;38.60;25.30;;;17.60;47.90;;;;;;5092484;28;20616;-61
2021/03/03 10:38:28;;;;;;;36.13;24.87;;;17.80;47.10;;;;;;5102014;28;20209;-61
2021/03/03 10:40:58;;;;;;;36.93;25.40;;;17.90;46.90;;;;;;5095965;28;20217;-61
2021/03/03 10:43:27;;;;;;;39.43;25.20;;;18.00;46.40;;;;;;5102252;28;20258;-62
2021/03/03 10:46:16;;;;;;;34.23;24.10;;;18.00;46.70;;;;;;5101850;28;20832;-65
2021/03/03 10:48:46;;;;;;;34.80;23.87;;;18.20;46.90;;;;;;5101252;28;20200;-63
2021/03/03 10:51:18;;;;;;;32.73;23.03;;;18.30;46.30;;;;;;5094890;28;20242;-61
2021/03/03 10:53:54;;;;;;;33.40;24.57;;;18.50;46.20;;;;;;5095388;28;20205;-64
2021/03/03 10:56:38;;;;;;;35.57;24.57;;;18.70;46.30;;;;;;5102250;28;20215;-62
2021/03/03 10:59:07;;;;;;;33.60;23.77;;;18.80;44.40;;;;;;5095503;28;20297;-61
2021/03/03 11:01:46;;;;;;;31.20;23.03;;;18.90;44.40;;;;;;5092976;28;20651;-66
2021/03/03 11:04:14;;;;;;;38.73;25.07;;;18.90;43.70;;;;;;5110595;28;20208;-61
2021/03/03 11:06:42;;;;;;;36.73;24.30;;;19.00;43.80;;;;;;5097823;28;20205;-61
2021/03/03 11:09:16;;;;;;;33.77;25.00;;;19.20;43.30;;;;;;5107038;28;20208;-61
2021/03/03 11:11:57;;;;;;;38.27;25.20;;;19.30;42.80;;;;;;5096914;28;20295;-60
2021/03/03 11:14:25;;;;;;;35.63;25.53;;;19.40;42.60;;;;;;5091890;28;20308;-62
2021/03/03 11:16:54;;;;;;;39.03;27.33;;;19.40;42.50;;;;;;5094085;28;20206;-62
2021/03/03 11:19:22;;;;;;;38.53;26.43;;;19.50;42.00;;;;;;5101267;28;20205;-62
2021/03/03 11:21:51;;;;;;;35.23;24.20;;;19.50;42.20;;;;;;5101756;28;20200;-62
2021/03/03 11:24:18;;;;;;;35.83;25.30;;;19.50;41.90;;;;;;5090549;28;20209;-63
2021/03/03 11:26:46;;;;;;;34.80;25.43;;;19.50;40.30;;;;;;5097452;28;20205;-62
2021/03/03 11:29:13;;;;;;;34.27;24.37;;;19.40;40.90;;;;;;5091335;28;20205;-62
2021/03/03 11:31:41;;;;;;;37.17;26.00;;;19.50;41.30;;;;;;5097123;28;20247;-63
2021/03/03 11:34:09;;;;;;;35.20;25.10;;;19.60;41.30;;;;;;5094147;28;20205;-62
2021/03/03 11:36:36;;;;;;;37.20;25.47;;;19.70;40.90;;;;;;5091854;28;20209;-61
2021/03/03 11:39:05;;;;;;;35.33;26.37;;;19.80;40.50;;;;;;5098674;28;20213;-61
2021/03/03 11:41:31;;;;;;;34.10;26.67;;;20.00;40.30;;;;;;5094399;28;20201;-61
2021/03/03 11:43:58;;;;;;;36.03;26.60;;;20.00;39.50;;;;;;5099708;28;20212;-60
2021/03/03 11:46:25;;;;;;;35.77;24.90;;;20.00;39.70;;;;;;5094077;28;20681;-61
2021/03/03 11:48:51;;;;;;;35.43;26.40;;;20.00;39.00;;;;;;5093673;28;20642;-61
2021/03/03 11:51:18;;;;;;;46.43;27.60;;;20.00;37.90;;;;;;5094955;28;20232;-62
2021/03/03 11:53:50;;;;;;;32.70;24.90;;;19.80;38.80;;;;;;5093686;28;20228;-61
2021/03/03 11:56:17;;;;;;;32.80;25.10;;;19.90;39.20;;;;;;5099903;28;20205;-62
2021/03/03 11:58:43;;;;;;;35.30;24.43;;;19.90;39.10;;;;;;5098838;28;20231;-60
2021/03/03 12:01:10;;;;;;;35.90;26.07;;;20.00;39.40;;;;;;5091771;28;20248;-63
2021/03/03 12:03:37;;;;;;;37.53;26.03;;;20.00;39.30;;;;;;5100359;28;20261;-62
2021/03/03 12:06:04;;;;;;;38.83;26.83;;;20.00;39.10;;;;;;5091533;28;20266;-62
2021/03/03 12:08:46;;;;;;;36.77;24.77;;;20.00;38.60;;;;;;5094479;28;20228;-61
2021/03/03 12:11:13;;;;;;;37.80;26.17;;;20.00;39.10;;;;;;5098042;28;20229;-61
2021/03/03 12:13:39;;;;;;;33.20;25.50;;;20.00;39.50;;;;;;5090429;28;20689;-65
2021/03/03 12:16:06;;;;;;;38.10;26.03;;;20.10;39.00;;;;;;5099943;28;20283;-62
2021/03/03 12:18:34;;;;;;;34.80;25.20;;;20.10;38.40;;;;;;5100525;28;20238;-61
2021/03/03 12:21:01;;;;;;;34.93;26.17;;;20.10;39.00;;;;;;5096587;28;20205;-61
2021/03/03 12:23:28;;;;;;;34.30;24.53;;;20.20;38.60;;;;;;5094245;28;20630;-62
2021/03/03 12:25:54;;;;;;;37.10;25.77;;;20.20;38.50;;;;;;5093745;28;20209;-61
2021/03/03 12:28:22;;;;;;;35.50;25.90;;;20.00;39.70;;;;;;5101402;28;20209;-61
2021/03/03 12:30:48;;;;;;;36.20;26.47;;;19.80;38.80;;;;;;5093708;28;20217;-61
2021/03/03 12:33:16;;;;;;;35.10;24.60;;;19.50;39.60;;;;;;5091087;28;20229;-61
2021/03/03 12:35:43;;;;;;;36.77;25.73;;;19.40;38.70;;;;;;5096286;28;20283;-61
2021/03/03 12:38:10;;;;;;;35.40;25.50;;;19.30;38.80;;;;;;5094705;28;20208;-61
2021/03/03 12:40:37;;;;;;;42.53;25.77;;;19.10;39.20;;;;;;5089424;28;20216;-61
2021/03/03 12:43:03;;;;;;;32.93;22.77;;;19.20;39.70;;;;;;5097025;28;20221;-61
2021/03/03 12:45:30;;;;;;;33.83;23.60;;;19.40;39.50;;;;;;5089864;28;21645;-61